Time;durP1;ratioP1;P1;durP2;ratioP2;P2;SDS_P1;SDS_P2;PMS_P1;PMS_P2;Temp;Humidity;BMP_temperature;BMP_pressure;BME280_temperature;BME280_humidity;BME280_pressure;Samples;Min_cycle;Max_cycle;Signal;HPM_P1;HPM_P2
2022/12/30 00:00:15;;;;;;;11.52;2.63;;;;;;;7.96;100.00;100854.72;5016820;28;20399;-73
2022/12/30 00:02:41;;;;;;;18.75;3.03;;;;;;;7.64;100.00;100857.25;5036323;28;20064;-71
2022/12/30 00:05:07;;;;;;;16.35;3.10;;;;;;;7.98;100.00;100863.44;5039040;28;20044;-74
2022/12/30 00:07:35;;;;;;;16.73;2.95;;;;;;;7.96;100.00;100865.34;5039829;28;20073;-73
2022/12/30 00:10:01;;;;;;;12.70;3.00;;;;;;;7.56;100.00;100867.38;5037579;28;20063;-73
2022/12/30 00:34:37;;;;;;;14.88;2.45;;;;;;;7.29;100.00;100876.72;5032789;28;20169;-72
2022/12/30 00:37:03;;;;;;;19.00;3.47;;;;;;;7.58;100.00;100869.94;5041709;28;20045;-72
2022/12/30 00:39:29;;;;;;;23.75;4.20;;;;;;;7.81;100.00;100866.13;5039014;28;20469;-73
2022/12/30 00:44:38;;;;;;;14.40;2.88;;;;;;;7.56;100.00;100863.88;5039618;28;20055;-72
2022/12/30 00:47:05;;;;;;;19.35;2.88;;;;;;;7.38;100.00;100858.56;5039463;28;20048;-73
2022/12/30 00:57:43;;;;;;;18.23;3.45;;;;;;;7.35;100.00;100869.31;5042564;28;20106;-73
2022/12/30 01:00:10;;;;;;;10.07;2.97;;;;;;;7.31;100.00;100875.72;5033574;28;20041;-72
2022/12/30 01:02:36;;;;;;;19.08;3.28;;;;;;;7.50;100.00;100881.81;5042030;28;20036;-72
2022/12/30 01:05:01;;;;;;;14.02;3.63;;;;;;;7.45;100.00;100872.38;5034767;28;20076;-72
2022/12/30 01:07:28;;;;;;;23.00;2.97;;;;;;;7.45;100.00;100878.53;5042735;28;20076;-72
2022/12/30 01:09:54;;;;;;;11.60;3.20;;;;;;;7.51;100.00;100891.50;5049986;28;20056;-71
2022/12/30 01:12:20;;;;;;;18.27;3.58;;;;;;;7.68;100.00;100885.34;5036850;28;20051;-73
2022/12/30 01:14:48;;;;;;;19.23;2.88;;;;;;;7.63;100.00;100886.50;5038624;28;20045;-72
2022/12/30 01:17:20;;;;;;;17.52;3.33;;;;;;;7.45;100.00;100883.84;5040613;28;20120;-72
2022/12/30 01:19:46;;;;;;;7.88;2.88;;;;;;;7.92;100.00;100890.31;5036460;28;20072;-72
2022/12/30 01:22:11;;;;;;;10.32;2.85;;;;;;;7.58;100.00;100892.06;5040435;28;20077;-72
2022/12/30 01:24:37;;;;;;;18.23;3.28;;;;;;;7.79;100.00;100898.94;5045307;28;20041;-71
2022/12/30 01:27:04;;;;;;;17.30;4.25;;;;;;;7.51;100.00;100894.16;5039914;28;20056;-72
2022/12/30 01:29:36;;;;;;;12.63;3.72;;;;;;;7.69;100.00;100908.31;5045133;28;20761;-72
2022/12/30 01:32:13;;;;;;;10.73;2.70;;;;;;;7.77;100.00;100903.44;5044087;28;20539;-72
2022/12/30 01:34:40;;;;;;;12.77;2.72;;;;;;;7.78;100.00;100904.31;5042355;28;20049;-72
2022/12/30 01:37:06;;;;;;;20.95;3.95;;;;;;;7.59;100.00;100912.34;5040258;28;20048;-72
2022/12/30 01:39:32;;;;;;;15.80;2.72;;;;;;;7.69;100.00;100915.41;5040341;28;20413;-72
2022/12/30 01:41:58;;;;;;;15.02;4.05;;;;;;;7.57;100.00;100913.34;5035644;28;20044;-72
2022/12/30 01:44:48;;;;;;;14.48;3.55;;;;;;;7.64;100.00;100914.78;5043547;28;20049;-73
2022/12/30 01:47:25;;;;;;;22.48;3.58;;;;;;;7.68;100.00;100918.97;5035288;28;20045;-72
2022/12/30 01:49:59;;;;;;;9.48;2.70;;;;;;;7.86;100.00;100925.16;5041114;28;20582;-72
2022/12/30 01:52:26;;;;;;;20.05;4.35;;;;;;;7.60;100.00;100926.47;5038414;28;20135;-72
2022/12/30 01:54:58;;;;;;;18.88;3.00;;;;;;;7.17;100.00;100925.91;5035537;28;20128;-72
2022/12/30 01:57:24;;;;;;;17.73;4.30;;;;;;;7.46;100.00;100924.50;5026396;28;20053;-72
2022/12/30 01:59:49;;;;;;;14.70;2.53;;;;;;;7.39;100.00;100925.75;5043837;28;20279;-72
2022/12/30 02:02:15;;;;;;;18.02;3.25;;;;;;;7.20;100.00;100941.69;5045851;28;20053;-72
2022/12/30 02:04:41;;;;;;;13.13;2.95;;;;;;;6.92;100.00;100940.31;5041733;28;20809;-72
2022/12/30 02:07:25;;;;;;;16.67;3.63;;;;;;;7.15;100.00;100933.09;5039022;28;20041;-73
2022/12/30 02:09:51;;;;;;;13.73;5.35;;;;;;;7.28;100.00;100936.88;5039769;28;20037;-72
2022/12/30 02:12:17;;;;;;;15.82;3.25;;;;;;;7.52;100.00;100937.47;5038555;28;20056;-72
2022/12/30 02:14:44;;;;;;;17.42;3.60;;;;;;;7.23;100.00;100934.44;5045274;28;20098;-72
2022/12/30 02:17:47;;;;;;;18.88;4.13;;;;;;;7.01;100.00;100941.69;5036958;28;20053;-72
2022/12/30 02:20:16;;;;;;;17.48;4.13;;;;;;;7.31;100.00;100936.72;5045266;28;20053;-73
2022/12/30 02:23:18;;;;;;;15.32;4.68;;;;;;;6.99;100.00;100943.56;5037941;28;20787;-71
2022/12/30 02:26:02;;;;;;;20.38;4.00;;;;;;;7.09;100.00;100941.34;5036004;28;20072;-72
2022/12/30 02:29:00;;;;;;;16.73;3.72;;;;;;;6.81;100.00;100936.44;5051961;28;20573;-71
2022/12/30 02:31:28;;;;;;;24.33;4.00;;;;;;;6.91;100.00;100924.50;5042481;28;20049;-71
2022/12/30 02:34:08;;;;;;;18.20;3.83;;;;;;;7.23;100.00;100917.69;5037573;28;20038;-71
2022/12/30 02:36:46;;;;;;;22.08;4.20;;;;;;;7.17;100.00;100921.47;5043173;28;20152;-71
2022/12/30 02:39:35;;;;;;;41.60;5.13;;;;;;;7.30;100.00;100923.53;5033479;28;20057;-71
2022/12/30 02:45:11;;;;;;;12.85;3.17;;;;;;;7.17;100.00;100912.66;5040609;28;20133;-71
2022/12/30 02:47:44;;;;;;;14.13;3.35;;;;;;;7.14;100.00;100923.41;5052286;28;20049;-71
2022/12/30 02:53:01;;;;;;;15.68;4.50;;;;;;;6.90;100.00;100925.44;5040171;28;20052;-71
2022/12/30 02:55:27;;;;;;;27.38;5.40;;;;;;;7.18;100.00;100912.59;5043189;28;20049;-71
2022/12/30 02:57:52;;;;;;;18.33;3.78;;;;;;;7.10;100.00;100916.53;5036292;28;20123;-70
2022/12/30 03:04:02;;;;;;;18.88;3.90;;;;;;;6.97;100.00;100905.63;5034935;28;20049;-71
2022/12/30 03:06:56;;;;;;;29.70;5.90;;;;;;;6.79;100.00;100901.22;5040371;28;20475;-71
2022/12/30 03:11:12;;;;;;;19.63;3.25;;;;;;;6.83;100.00;100895.72;5042914;28;20134;-73
2022/12/30 03:12:34;;;;;;;27.83;3.83;;;;;;;6.95;100.00;100900.41;5026090;28;20056;-72
2022/12/30 03:15:07;;;;;;;24.27;4.63;;;;;;;6.73;100.00;100892.63;5038896;28;20076;-73
2022/12/30 03:17:38;;;;;;;19.52;4.03;;;;;;;6.47;100.00;100885.84;5039548;28;20056;-74
2022/12/30 03:20:11;;;;;;;19.77;4.07;;;;;;;6.58;100.00;100898.63;5022763;28;20071;-73
2022/12/30 03:28:14;;;;;;;17.63;3.45;;;;;;;6.45;100.00;100892.16;5034925;28;20064;-72
2022/12/30 03:30:44;;;;;;;28.02;5.00;;;;;;;6.63;100.00;100891.34;5034098;28;20052;-72
2022/12/30 03:33:11;;;;;;;19.77;4.28;;;;;;;6.37;100.00;100894.28;5043435;28;20127;-72
2022/12/30 03:35:40;;;;;;;19.42;4.05;;;;;;;6.55;100.00;100893.47;5040700;28;20059;-72
2022/12/30 03:38:08;;;;;;;24.63;3.95;;;;;;;6.62;100.00;100896.69;5042897;28;20048;-73
2022/12/30 03:40:38;;;;;;;18.25;3.92;;;;;;;6.51;100.00;100897.19;5034431;28;20059;-73
2022/12/30 03:43:06;;;;;;;31.60;4.45;;;;;;;6.61;100.00;100902.91;5043219;28;20177;-71
2022/12/30 03:45:32;;;;;;;18.15;3.90;;;;;;;6.26;100.00;100897.44;5040506;28;20048;-71
2022/12/30 03:47:57;;;;;;;22.63;3.05;;;;;;;6.37;100.00;100903.09;5042893;28;20044;-70
2022/12/30 03:50:23;;;;;;;21.90;4.50;;;;;;;6.68;100.00;100907.03;5033009;28;20068;-70
2022/12/30 03:52:49;;;;;;;20.27;5.07;;;;;;;6.60;100.00;100904.72;5049355;28;20032;-71
2022/12/30 03:55:14;;;;;;;16.33;3.40;;;;;;;6.20;100.00;100906.50;5038936;28;20075;-71
2022/12/30 03:57:40;;;;;;;18.58;3.38;;;;;;;6.65;100.00;100913.31;5042637;28;20433;-71
2022/12/30 04:00:08;;;;;;;16.45;3.38;;;;;;;6.55;100.00;100913.81;5036792;28;20042;-71
2022/12/30 04:02:38;;;;;;;22.52;4.40;;;;;;;6.41;100.00;100917.06;5034081;28;20056;-70
2022/12/30 04:05:04;;;;;;;18.77;3.30;;;;;;;6.29;100.00;100913.19;5036232;28;20079;-71
2022/12/30 04:07:30;;;;;;;16.02;4.75;;;;;;;6.44;100.00;100915.16;5032302;28;20049;-71
2022/12/30 04:09:55;;;;;;;27.05;3.65;;;;;;;6.17;100.00;100913.72;5041103;28;20049;-71
2022/12/30 04:12:21;;;;;;;22.92;3.55;;;;;;;6.42;100.00;100916.13;5039139;28;20045;-71
2022/12/30 04:14:46;;;;;;;10.90;3.63;;;;;;;6.68;100.00;100912.31;5037034;28;20121;-71
2022/12/30 04:17:12;;;;;;;12.00;2.60;;;;;;;6.34;100.00;100907.69;5033461;28;20100;-71
2022/12/30 04:19:37;;;;;;;20.55;3.22;;;;;;;6.38;100.00;100906.63;5027721;28;20072;-71
2022/12/30 04:22:03;;;;;;;24.50;4.00;;;;;;;6.58;100.00;100903.94;5041650;28;20041;-70
2022/12/30 04:24:28;;;;;;;28.65;5.85;;;;;;;6.39;100.00;100914.50;5035300;28;20056;-71
2022/12/30 04:26:54;;;;;;;17.90;3.38;;;;;;;6.38;100.00;100906.63;5033847;28;20076;-70
2022/12/30 04:29:19;;;;;;;14.05;3.05;;;;;;;6.52;100.00;100908.63;5028322;28;20037;-71
2022/12/30 04:31:45;;;;;;;16.65;3.63;;;;;;;6.34;100.00;100911.19;5039090;28;20115;-71
2022/12/30 04:34:12;;;;;;;18.73;4.00;;;;;;;6.20;100.00;100900.34;5033735;28;20049;-71
2022/12/30 04:36:37;;;;;;;16.63;3.92;;;;;;;6.35;100.00;100901.47;5041078;28;20048;-71
2022/12/30 04:39:03;;;;;;;19.60;3.33;;;;;;;6.17;100.00;100903.13;5049143;28;20053;-71
2022/12/30 04:41:29;;;;;;;21.55;3.90;;;;;;;6.48;100.00;100902.63;5041502;28;20087;-71
2022/12/30 04:43:54;;;;;;;25.98;3.78;;;;;;;6.39;100.00;100897.75;5041653;28;20045;-71
2022/12/30 04:46:20;;;;;;;15.25;2.88;;;;;;;6.22;100.00;100901.13;5038365;28;20057;-71
2022/12/30 04:48:45;;;;;;;21.00;3.92;;;;;;;6.09;100.00;100902.63;5038851;28;20103;-72
2022/12/30 04:51:11;;;;;;;22.23;3.72;;;;;;;6.45;100.00;100913.38;5040663;28;20129;-71
2022/12/30 04:53:36;;;;;;;35.17;4.38;;;;;;;6.35;100.00;100912.06;5043320;28;20041;-71
2022/12/30 04:56:02;;;;;;;32.22;3.95;;;;;;;6.42;100.00;100910.84;5041933;28;20390;-72
2022/12/30 04:58:27;;;;;;;21.23;3.30;;;;;;;6.40;100.00;100905.63;5037136;28;20050;-71
2022/12/30 05:00:53;;;;;;;17.15;3.55;;;;;;;6.39;100.00;100906.56;5042578;28;20132;-71
2022/12/30 05:03:19;;;;;;;29.38;4.20;;;;;;;6.29;100.00;100910.53;5044896;28;20082;-71
2022/12/30 05:05:46;;;;;;;22.75;3.90;;;;;;;6.37;100.00;100911.03;5035889;28;20124;-71
2022/12/30 05:08:12;;;;;;;25.75;3.25;;;;;;;6.23;100.00;100916.13;5041248;28;20044;-71
2022/12/30 05:10:38;;;;;;;17.15;5.30;;;;;;;6.19;100.00;100907.44;5040658;28;20098;-71
2022/12/30 05:13:04;;;;;;;22.85;3.50;;;;;;;6.60;100.00;100917.97;5036292;28;20052;-71
2022/12/30 05:15:30;;;;;;;14.20;3.38;;;;;;;6.35;100.00;100910.25;5038757;28;20813;-71
2022/12/30 05:17:55;;;;;;;15.32;4.20;;;;;;;6.26;100.00;100918.63;5036108;28;20060;-70
2022/12/30 05:20:21;;;;;;;22.65;3.22;;;;;;;6.32;100.00;100920.97;5044615;28;20063;-71
2022/12/30 05:22:46;;;;;;;13.55;3.63;;;;;;;6.29;100.00;100912.34;5043129;28;20028;-71
2022/12/30 05:27:56;;;;;;;29.30;3.70;;;;;;;6.26;100.00;100908.03;5039776;28;20052;-71
2022/12/30 05:30:22;;;;;;;19.38;2.92;;;;;;;6.13;100.00;100901.56;5044167;28;20041;-71
2022/12/30 05:32:48;;;;;;;20.33;3.83;;;;;;;6.49;100.00;100899.91;5037412;28;20084;-71
2022/12/30 05:35:14;;;;;;;13.50;3.90;;;;;;;6.51;100.00;100894.53;5042312;28;20410;-70
2022/12/30 05:37:39;;;;;;;19.20;4.15;;;;;;;6.40;100.00;100895.03;5044697;28;20119;-71
2022/12/30 05:40:05;;;;;;;19.48;3.38;;;;;;;6.28;100.00;100897.38;5042827;28;20056;-71
2022/12/30 05:42:31;;;;;;;18.27;3.50;;;;;;;6.20;100.00;100901.22;5043238;28;20049;-71
2022/12/30 05:44:56;;;;;;;14.05;3.33;;;;;;;6.34;100.00;100895.31;5044965;28;20055;-71
2022/12/30 05:47:22;;;;;;;25.85;3.92;;;;;;;6.09;100.00;100906.13;5045048;28;20103;-71
2022/12/30 05:49:48;;;;;;;28.00;3.75;;;;;;;6.24;100.00;100896.66;5041655;28;20067;-72
2022/12/30 05:52:14;;;;;;;23.17;3.40;;;;;;;6.30;100.00;100890.22;5045196;28;20568;-71
2022/12/30 05:54:40;;;;;;;20.55;3.45;;;;;;;6.44;100.00;100883.38;5039260;28;20057;-71
2022/12/30 05:57:06;;;;;;;27.27;5.38;;;;;;;6.55;100.00;100884.66;5035226;28;20049;-71
2022/12/30 05:59:31;;;;;;;28.88;3.80;;;;;;;6.34;100.00;100884.72;5044395;28;20033;-71
2022/12/30 06:01:57;;;;;;;19.63;4.00;;;;;;;6.38;100.00;100883.66;5053536;28;20394;-70
2022/12/30 06:04:22;;;;;;;17.02;4.05;;;;;;;6.32;100.00;100883.91;5044776;28;20118;-71
2022/12/30 06:06:47;;;;;;;30.08;4.13;;;;;;;6.01;100.00;100887.06;5040554;28;20068;-71
2022/12/30 06:09:13;;;;;;;13.63;3.25;;;;;;;6.26;100.00;100892.13;5040566;28;20041;-71
2022/12/30 06:11:38;;;;;;;15.75;4.57;;;;;;;6.56;100.00;100881.09;5035657;28;20619;-71
2022/12/30 06:14:04;;;;;;;23.20;4.38;;;;;;;6.25;100.00;100885.13;5041963;28;20453;-73
2022/12/30 06:16:29;;;;;;;14.88;3.60;;;;;;;6.16;100.00;100885.53;5037462;28;20053;-71
2022/12/30 06:18:55;;;;;;;18.27;3.95;;;;;;;6.13;100.00;100881.25;5037035;28;20057;-71
2022/12/30 06:21:20;;;;;;;12.30;3.40;;;;;;;6.46;100.00;100876.19;5037662;28;20048;-72
2022/12/30 06:23:45;;;;;;;15.50;5.10;;;;;;;6.29;100.00;100883.22;5044147;28;20126;-71
2022/12/30 06:26:11;;;;;;;19.55;4.30;;;;;;;6.26;100.00;100883.34;5051981;28;20063;-71
2022/12/30 06:28:36;;;;;;;18.02;3.92;;;;;;;6.53;100.00;100879.44;5035478;28;20040;-74
2022/12/30 06:31:02;;;;;;;20.27;4.55;;;;;;;6.42;100.00;100879.06;5043072;28;20052;-71
2022/12/30 06:33:27;;;;;;;19.05;3.80;;;;;;;6.19;100.00;100880.13;5040204;28;20045;-73
2022/12/30 06:35:53;;;;;;;24.60;3.88;;;;;;;6.27;100.00;100877.97;5042792;28;20052;-72
2022/12/30 06:38:19;;;;;;;20.42;3.80;;;;;;;6.41;100.00;100872.91;5041802;28;20081;-70
2022/12/30 06:40:44;;;;;;;12.23;3.58;;;;;;;6.42;100.00;100871.97;5042668;28;20044;-71
2022/12/30 06:43:10;;;;;;;22.35;4.95;;;;;;;6.27;100.00;100879.75;5041482;28;20102;-71
2022/12/30 06:45:36;;;;;;;19.00;4.45;;;;;;;6.39;100.00;100879.22;5040788;28;20497;-75
2022/12/30 06:48:02;;;;;;;25.05;5.65;;;;;;;6.32;100.00;100878.63;5043371;28;20107;-70
2022/12/30 06:50:28;;;;;;;21.00;4.25;;;;;;;6.40;100.00;100880.94;5040427;28;20057;-71
2022/12/30 06:52:53;;;;;;;22.40;3.83;;;;;;;6.33;100.00;100882.16;5034880;28;20084;-71
2022/12/30 06:55:21;;;;;;;17.73;4.05;;;;;;;6.44;100.00;100878.06;5044272;28;20092;-71
2022/12/30 06:57:47;;;;;;;24.88;5.93;;;;;;;6.31;100.00;100868.09;5039262;28;20797;-71
2022/12/30 07:00:13;;;;;;;22.77;4.60;;;;;;;6.57;100.00;100861.59;5044076;28;20045;-71
2022/12/30 07:02:38;;;;;;;27.25;4.65;;;;;;;6.45;100.00;100860.38;5039346;28;20481;-72
2022/12/30 07:05:04;;;;;;;27.65;6.00;;;;;;;6.56;100.00;100854.59;5029223;28;20049;-71
2022/12/30 07:07:30;;;;;;;30.77;5.03;;;;;;;6.62;100.00;100855.16;5035320;28;20045;-71
2022/12/30 07:09:55;;;;;;;20.15;5.28;;;;;;;6.34;100.00;100846.78;5040497;28;20825;-72
2022/12/30 07:12:21;;;;;;;24.30;5.95;;;;;;;6.58;100.00;100858.91;5043569;28;20577;-71
2022/12/30 07:14:46;;;;;;;13.63;4.00;;;;;;;6.62;100.00;100849.00;5039085;28;20049;-74
2022/12/30 07:17:11;;;;;;;17.73;4.90;;;;;;;6.15;100.00;100842.31;5039448;28;20045;-71
2022/12/30 07:19:37;;;;;;;26.77;5.40;;;;;;;6.41;100.00;100837.63;5034437;28;20060;-71
2022/12/30 07:22:02;;;;;;;18.92;5.00;;;;;;;6.43;100.00;100830.47;5033618;28;20049;-73
2022/12/30 07:24:28;;;;;;;21.05;4.80;;;;;;;6.62;100.00;100820.72;5036278;28;20053;-71
2022/12/30 07:26:53;;;;;;;25.95;4.13;;;;;;;6.67;100.00;100820.50;5041172;28;20060;-71
2022/12/30 07:29:20;;;;;;;16.00;4.20;;;;;;;6.71;100.00;100809.69;5038698;28;20033;-71
2022/12/30 07:31:46;;;;;;;22.02;4.68;;;;;;;6.58;100.00;100805.06;5041087;28;20080;-72
2022/12/30 07:34:11;;;;;;;23.73;4.35;;;;;;;6.84;100.00;100798.50;5039108;28;20069;-72
2022/12/30 07:36:37;;;;;;;24.75;4.47;;;;;;;6.72;100.00;100795.50;5040269;28;20045;-71
2022/12/30 07:39:03;;;;;;;19.10;4.25;;;;;;;6.64;100.00;100794.16;5039138;28;20631;-71
2022/12/30 07:41:28;;;;;;;15.07;4.00;;;;;;;6.75;100.00;100790.06;5044056;28;20051;-71
2022/12/30 07:43:54;;;;;;;16.67;3.85;;;;;;;6.73;100.00;100794.59;5042853;28;20118;-71
2022/12/30 07:46:19;;;;;;;20.15;4.25;;;;;;;6.66;100.00;100787.84;5043433;28;20068;-73
2022/12/30 07:48:45;;;;;;;30.02;4.10;;;;;;;6.69;100.00;100793.00;5040467;28;20044;-73
2022/12/30 07:51:16;;;;;;;21.20;4.05;;;;;;;6.73;100.00;100791.09;5035058;28;20055;-71
2022/12/30 07:53:42;;;;;;;16.73;3.70;;;;;;;6.81;100.00;100796.00;5040228;28;20068;-71
2022/12/30 07:56:10;;;;;;;16.45;4.10;;;;;;;6.70;100.00;100796.50;5040227;28;20044;-71
2022/12/30 07:58:36;;;;;;;15.60;3.38;;;;;;;6.82;100.00;100795.06;5040035;28;20063;-73
2022/12/30 08:01:07;;;;;;;22.52;3.95;;;;;;;6.73;100.00;100796.38;5038178;28;20053;-71
2022/12/30 08:03:33;;;;;;;21.05;4.57;;;;;;;6.80;100.00;100787.19;5037672;28;20129;-72
2022/12/30 08:06:07;;;;;;;23.98;3.83;;;;;;;6.55;100.00;100778.69;5043352;28;20037;-72
2022/12/30 08:08:33;;;;;;;21.38;4.20;;;;;;;6.89;100.00;100773.50;5041891;28;20064;-71
2022/12/30 08:11:00;;;;;;;16.45;4.25;;;;;;;6.71;100.00;100758.47;5040841;28;20128;-71
2022/12/30 08:13:26;;;;;;;15.85;2.97;;;;;;;6.99;100.00;100747.38;5042793;28;20052;-71
2022/12/30 08:15:51;;;;;;;21.65;4.18;;;;;;;6.91;100.00;100737.16;5040904;28;20437;-72
2022/12/30 08:18:16;;;;;;;21.35;4.28;;;;;;;7.10;100.00;100744.19;5043422;28;20049;-72
2022/12/30 08:20:43;;;;;;;21.30;3.30;;;;;;;7.18;100.00;100734.91;5042013;28;20045;-71
2022/12/30 08:23:08;;;;;;;17.10;3.67;;;;;;;7.25;100.00;100732.81;5043543;28;20037;-71
2022/12/30 08:25:34;;;;;;;10.80;3.22;;;;;;;7.34;100.00;100747.41;5045346;28;20111;-72
2022/12/30 08:28:00;;;;;;;24.20;3.40;;;;;;;7.40;100.00;100728.50;5045690;28;20056;-72
2022/12/30 08:30:26;;;;;;;19.60;3.35;;;;;;;7.38;100.00;100725.94;5046192;28;20825;-72
2022/12/30 08:32:51;;;;;;;15.50;3.15;;;;;;;7.31;100.00;100732.47;5043939;28;20717;-71
2022/12/30 08:35:17;;;;;;;13.90;2.78;;;;;;;7.23;100.00;100732.88;5041385;28;20052;-72
2022/12/30 08:37:43;;;;;;;19.70;4.85;;;;;;;7.12;100.00;100729.91;5043234;28;20049;-71
2022/12/30 08:40:09;;;;;;;17.65;3.08;;;;;;;7.41;100.00;100735.50;5045110;28;20135;-72
2022/12/30 08:42:35;;;;;;;12.85;2.83;;;;;;;7.38;100.00;100723.28;5045222;28;20090;-72
2022/12/30 08:45:01;;;;;;;13.07;3.13;;;;;;;7.67;100.00;100707.59;5046778;28;20057;-72
2022/12/30 08:47:26;;;;;;;10.90;2.80;;;;;;;7.72;100.00;100703.75;5044246;28;20098;-72
2022/12/30 08:49:52;;;;;;;22.10;3.38;;;;;;;7.48;100.00;100694.44;5043992;28;20445;-72
2022/12/30 08:52:17;;;;;;;29.70;3.78;;;;;;;7.98;100.00;100693.50;5042888;28;20128;-71
2022/12/30 08:54:43;;;;;;;13.50;2.80;;;;;;;7.99;100.00;100690.81;5039369;28;20050;-71
2022/12/30 08:57:09;;;;;;;16.33;3.28;;;;;;;7.55;100.00;100689.69;5046842;28;20080;-72
2022/12/30 08:59:34;;;;;;;10.75;2.97;;;;;;;7.96;100.00;100683.00;5044921;28;20118;-71
2022/12/30 09:02:00;;;;;;;10.55;2.45;;;;;;;7.87;100.00;100687.94;5045842;28;20041;-71
2022/12/30 09:04:25;;;;;;;10.75;2.85;;;;;;;8.01;100.00;100680.94;5045005;28;20521;-72
2022/12/30 09:06:50;;;;;;;11.90;3.03;;;;;;;7.87;100.00;100694.09;5041097;28;20115;-72
2022/12/30 09:09:17;;;;;;;11.38;2.50;;;;;;;7.81;100.00;100683.84;5042213;28;20056;-71
2022/12/30 09:11:44;;;;;;;9.00;3.10;;;;;;;7.81;100.00;100675.88;5043811;28;20041;-72
2022/12/30 09:14:10;;;;;;;19.15;3.08;;;;;;;8.12;100.00;100679.50;5042846;28;20087;-72
2022/12/30 09:16:36;;;;;;;9.38;2.80;;;;;;;8.05;100.00;100671.00;5039540;28;20039;-72
2022/12/30 09:19:01;;;;;;;9.50;2.72;;;;;;;8.19;100.00;100665.78;5044807;28;20037;-71
2022/12/30 09:21:27;;;;;;;15.73;4.88;;;;;;;8.08;100.00;100662.00;5045697;28;20497;-71
2022/12/30 09:23:53;;;;;;;16.00;4.10;;;;;;;8.36;100.00;100656.88;5035471;28;20044;-72
2022/12/30 09:26:21;;;;;;;14.48;2.95;;;;;;;8.01;100.00;100645.56;5041059;28;20053;-72
2022/12/30 09:28:48;;;;;;;16.45;3.17;;;;;;;8.29;100.00;100629.78;5036166;28;20498;-72
2022/12/30 09:31:14;;;;;;;11.85;2.92;;;;;;;8.26;100.00;100647.69;5040079;28;20211;-73
2022/12/30 09:33:39;;;;;;;6.05;2.05;;;;;;;8.34;100.00;100637.50;5041637;28;20657;-73
2022/12/30 09:36:06;;;;;;;6.40;2.13;;;;;;;8.25;100.00;100632.72;5038332;28;20103;-75
2022/12/30 09:38:31;;;;;;;8.70;3.28;;;;;;;8.15;100.00;100623.56;5042424;28;20053;-73
2022/12/30 09:43:15;;;;;;;9.60;2.40;;;;;;;8.37;100.00;100620.53;5043853;28;20045;-72
2022/12/30 09:44:18;;;;;;;9.77;2.47;;;;;;;8.64;99.00;100623.41;5043686;28;20068;-73
2022/12/30 09:47:13;;;;;;;11.20;2.65;;;;;;;8.39;99.95;100621.34;5043060;28;20425;-73
2022/12/30 09:49:44;;;;;;;13.45;2.60;;;;;;;8.61;99.60;100621.78;5032009;28;20065;-72
2022/12/30 09:52:28;;;;;;;9.63;2.03;;;;;;;8.66;98.76;100624.16;5042394;28;20076;-72
2022/12/30 09:55:10;;;;;;;5.47;2.20;;;;;;;8.80;97.13;100605.59;5043208;28;20048;-73
2022/12/30 09:57:37;;;;;;;15.20;2.13;;;;;;;8.95;96.85;100607.34;5041137;28;20052;-73
2022/12/30 10:00:11;;;;;;;8.00;2.08;;;;;;;8.89;96.70;100613.03;5041563;28;20067;-73
2022/12/30 10:03:11;;;;;;;13.07;2.20;;;;;;;8.77;96.26;100596.00;5040968;28;20130;-73
2022/12/30 10:05:40;;;;;;;19.80;4.68;;;;;;;8.93;96.76;100582.63;5035806;28;20501;-71
2022/12/30 10:08:28;;;;;;;11.55;1.85;;;;;;;8.93;95.52;100587.09;5036238;28;20041;-72
2022/12/30 10:11:10;;;;;;;13.95;2.20;;;;;;;9.13;95.17;100589.38;5040133;28;20093;-71
2022/12/30 10:14:00;;;;;;;6.05;1.83;;;;;;;9.01;94.85;100583.03;5034349;28;20041;-71
2022/12/30 10:16:41;;;;;;;10.48;1.63;;;;;;;9.07;95.84;100573.81;5040868;28;20486;-71
2022/12/30 10:19:39;;;;;;;7.88;1.77;;;;;;;9.13;93.90;100570.75;5036938;28;20052;-71
2022/12/30 10:22:27;;;;;;;11.98;2.60;;;;;;;9.34;92.81;100557.97;5013946;28;20060;-71
2022/12/30 10:25:01;;;;;;;6.63;1.65;;;;;;;9.37;92.74;100555.09;5032007;28;20048;-70
2022/12/30 10:27:48;;;;;;;7.65;1.92;;;;;;;9.24;93.47;100544.38;5033337;28;20049;-71
2022/12/30 10:30:19;;;;;;;10.45;1.80;;;;;;;9.37;92.72;100543.59;5029713;28;20684;-71
2022/12/30 10:32:52;;;;;;;13.48;2.20;;;;;;;9.54;91.80;100535.41;5031422;28;20057;-73
2022/12/30 10:35:31;;;;;;;9.07;2.05;;;;;;;9.44;91.65;100524.50;5040652;28;20076;-70
2022/12/30 10:38:10;;;;;;;9.60;1.80;;;;;;;9.41;92.23;100516.69;5039000;28;20048;-70
2022/12/30 10:40:50;;;;;;;7.18;1.73;;;;;;;9.50;91.20;100501.94;5034058;28;20052;-71
2022/12/30 10:43:44;;;;;;;7.78;1.55;;;;;;;9.53;92.72;100493.75;5036281;28;20164;-72
2022/12/30 10:46:22;;;;;;;7.13;2.78;;;;;;;9.53;92.29;100491.09;5037217;28;20040;-72
2022/12/30 10:49:06;;;;;;;7.80;2.03;;;;;;;9.96;90.03;100478.47;5037992;28;20083;-73
2022/12/30 10:51:31;;;;;;;9.00;2.00;;;;;;;9.81;90.66;100474.16;5035922;28;20053;-72
2022/12/30 10:53:57;;;;;;;8.82;2.75;;;;;;;9.50;91.24;100462.88;5037556;28;20051;-71
2022/12/30 10:56:26;;;;;;;12.93;1.92;;;;;;;9.85;90.84;100465.88;5036206;28;20045;-71
2022/12/30 10:59:13;;;;;;;8.73;2.97;;;;;;;9.54;91.62;100448.41;5036098;28;20879;-73
2022/12/30 11:01:42;;;;;;;5.22;1.92;;;;;;;9.85;92.14;100446.38;5031778;28;20056;-70
2022/12/30 11:04:37;;;;;;;25.20;2.55;;;;;;;9.67;91.67;100435.13;5033720;28;20036;-71
2022/12/30 11:07:06;;;;;;;7.65;1.80;;;;;;;10.06;90.51;100420.97;5037665;28;20100;-71
2022/12/30 11:09:32;;;;;;;7.10;2.47;;;;;;;10.06;89.75;100430.78;5037928;28;20037;-73
2022/12/30 11:14:53;;;;;;;6.45;2.70;;;;;;;9.80;90.44;100406.75;5036017;28;20061;-71
2022/12/30 11:17:33;;;;;;;8.95;1.33;;;;;;;10.00;90.58;100397.41;5049571;28;20053;-72
2022/12/30 11:20:07;;;;;;;4.60;1.55;;;;;;;9.87;90.62;100380.56;5034042;28;20053;-71
2022/12/30 11:22:33;;;;;;;3.30;1.58;;;;;;;9.83;91.76;100373.72;5036370;28;20152;-74
2022/12/30 11:25:04;;;;;;;4.72;1.52;;;;;;;9.68;91.81;100366.78;5035909;28;20108;-70
2022/12/30 11:27:41;;;;;;;2.38;1.20;;;;;;;10.17;90.97;100347.44;5035482;28;20093;-73
2022/12/30 11:30:07;;;;;;;5.28;2.25;;;;;;;9.92;91.56;100345.63;5047238;28;20043;-71
2022/12/30 11:32:34;;;;;;;8.85;1.80;;;;;;;10.07;91.99;100320.59;5032629;28;20128;-71
2022/12/30 11:34:59;;;;;;;5.45;2.20;;;;;;;10.10;91.16;100315.91;5034478;28;20098;-71
2022/12/30 11:37:32;;;;;;;7.95;1.80;;;;;;;9.91;92.51;100309.31;5036872;28;20492;-71
2022/12/30 11:40:25;;;;;;;4.40;1.58;;;;;;;10.12;91.11;100305.97;5049326;28;20114;-71
2022/12/30 11:43:09;;;;;;;2.75;1.27;;;;;;;9.99;92.01;100283.84;5036924;28;20055;-71
2022/12/30 11:45:34;;;;;;;6.68;1.58;;;;;;;9.97;91.64;100280.41;5033740;28;20055;-71
2022/12/30 11:48:00;;;;;;;5.60;1.92;;;;;;;9.93;91.80;100264.75;5037311;28;20049;-71
2022/12/30 11:50:25;;;;;;;5.82;1.95;;;;;;;9.87;91.52;100260.72;5021659;28;20046;-71
2022/12/30 11:52:58;;;;;;;2.65;1.52;;;;;;;9.91;91.75;100248.03;5038483;28;20041;-70
2022/12/30 11:55:25;;;;;;;4.50;1.25;;;;;;;10.12;92.19;100230.53;5034201;28;20101;-73
2022/12/30 11:57:53;;;;;;;5.72;1.40;;;;;;;10.00;91.30;100210.13;5032825;28;20076;-70
2022/12/30 12:00:18;;;;;;;9.90;1.65;;;;;;;9.96;91.91;100198.81;5038182;28;20151;-71
2022/12/30 12:02:49;;;;;;;12.20;2.65;;;;;;;10.00;92.15;100202.97;5031972;28;20131;-72
2022/12/30 12:05:39;;;;;;;7.57;2.20;;;;;;;10.04;91.87;100196.47;5039835;28;20052;-71
2022/12/30 12:08:16;;;;;;;5.70;2.03;;;;;;;10.10;91.41;100188.03;5041607;28;20489;-71
2022/12/30 12:10:47;;;;;;;4.32;1.50;;;;;;;10.08;91.20;100189.09;5032065;28;20063;-72
2022/12/30 12:13:33;;;;;;;9.60;1.90;;;;;;;9.84;92.48;100181.06;5033904;28;20546;-71
2022/12/30 12:15:59;;;;;;;6.40;1.65;;;;;;;9.69;93.62;100176.78;5031434;28;20098;-70
2022/12/30 12:18:47;;;;;;;7.45;1.85;;;;;;;9.90;92.41;100172.63;5038541;28;20048;-73
2022/12/30 12:21:12;;;;;;;5.78;1.92;;;;;;;10.04;92.27;100160.97;5038826;28;20887;-71
2022/12/30 12:23:46;;;;;;;5.60;1.88;;;;;;;9.94;92.43;100158.13;5035212;28;20037;-71